sensor_id;sensor_type;location;lat;lon;timestamp;temperature;humidity
62464;SHT31;48512;48.552;9.380;2022-11-15T00:01:18;12.69;63.64
62464;SHT31;48512;48.552;9.380;2022-11-15T00:03:43;12.78;63.33
62464;SHT31;48512;48.552;9.380;2022-11-15T00:06:09;12.72;63.41
62464;SHT31;48512;48.552;9.380;2022-11-15T00:08:34;12.70;63.67
62464;SHT31;48512;48.552;9.380;2022-11-15T00:11:00;12.61;64.03
62464;SHT31;48512;48.552;9.380;2022-11-15T00:13:25;12.73;63.82
62464;SHT31;48512;48.552;9.380;2022-11-15T00:15:51;12.80;63.28
62464;SHT31;48512;48.552;9.380;2022-11-15T00:18:17;12.76;63.92
62464;SHT31;48512;48.552;9.380;2022-11-15T00:20:42;12.73;64.07
62464;SHT31;48512;48.552;9.380;2022-11-15T00:23:08;12.61;64.64
62464;SHT31;48512;48.552;9.380;2022-11-15T00:25:33;12.66;64.35
62464;SHT31;48512;48.552;9.380;2022-11-15T00:27:59;12.59;64.85
62464;SHT31;48512;48.552;9.380;2022-11-15T00:30:24;12.49;65.57
62464;SHT31;48512;48.552;9.380;2022-11-15T00:32:49;12.42;66.00
62464;SHT31;48512;48.552;9.380;2022-11-15T00:35:15;12.41;66.45
62464;SHT31;48512;48.552;9.380;2022-11-15T00:37:40;12.31;67.02
62464;SHT31;48512;48.552;9.380;2022-11-15T00:40:06;12.27;67.45
62464;SHT31;48512;48.552;9.380;2022-11-15T00:42:31;12.18;67.61
62464;SHT31;48512;48.552;9.380;2022-11-15T00:44:56;12.14;68.00
62464;SHT31;48512;48.552;9.380;2022-11-15T00:47:22;12.08;68.34
62464;SHT31;48512;48.552;9.380;2022-11-15T00:49:47;12.00;68.34
62464;SHT31;48512;48.552;9.380;2022-11-15T00:52:12;11.97;68.69
62464;SHT31;48512;48.552;9.380;2022-11-15T00:54:37;11.96;68.67
62464;SHT31;48512;48.552;9.380;2022-11-15T00:57:03;11.86;68.95
62464;SHT31;48512;48.552;9.380;2022-11-15T00:59:28;11.82;69.38
62464;SHT31;48512;48.552;9.380;2022-11-15T01:01:54;11.80;69.85
62464;SHT31;48512;48.552;9.380;2022-11-15T01:04:19;11.72;70.29
62464;SHT31;48512;48.552;9.380;2022-11-15T01:06:44;11.69;70.39
62464;SHT31;48512;48.552;9.380;2022-11-15T01:09:09;11.58;70.84
62464;SHT31;48512;48.552;9.380;2022-11-15T01:11:35;11.58;70.91
62464;SHT31;48512;48.552;9.380;2022-11-15T01:14:00;11.54;71.00
62464;SHT31;48512;48.552;9.380;2022-11-15T01:16:25;11.46;71.20
62464;SHT31;48512;48.552;9.380;2022-11-15T01:18:51;11.42;71.37
62464;SHT31;48512;48.552;9.380;2022-11-15T01:21:17;11.32;71.74
62464;SHT31;48512;48.552;9.380;2022-11-15T01:23:42;11.25;72.02
62464;SHT31;48512;48.552;9.380;2022-11-15T01:26:10;11.21;72.14
62464;SHT31;48512;48.552;9.380;2022-11-15T01:28:36;11.08;72.68
62464;SHT31;48512;48.552;9.380;2022-11-15T01:31:02;10.93;73.37
62464;SHT31;48512;48.552;9.380;2022-11-15T01:33:28;10.89;73.36
62464;SHT31;48512;48.552;9.380;2022-11-15T01:35:54;10.87;73.24
62464;SHT31;48512;48.552;9.380;2022-11-15T01:38:19;10.85;73.19
62464;SHT31;48512;48.552;9.380;2022-11-15T01:40:44;10.91;73.22
62464;SHT31;48512;48.552;9.380;2022-11-15T01:43:23;10.76;73.90
62464;SHT31;48512;48.552;9.380;2022-11-15T01:45:51;10.70;74.26
62464;SHT31;48512;48.552;9.380;2022-11-15T01:48:18;10.66;74.53
62464;SHT31;48512;48.552;9.380;2022-11-15T01:50:44;10.60;74.42
62464;SHT31;48512;48.552;9.380;2022-11-15T01:53:09;10.56;74.01
62464;SHT31;48512;48.552;9.380;2022-11-15T01:55:35;10.62;73.46
62464;SHT31;48512;48.552;9.380;2022-11-15T01:58:02;10.59;73.50
62464;SHT31;48512;48.552;9.380;2022-11-15T02:00:29;10.63;73.28
62464;SHT31;48512;48.552;9.380;2022-11-15T02:02:54;10.66;73.35
62464;SHT31;48512;48.552;9.380;2022-11-15T02:05:19;10.63;73.77
62464;SHT31;48512;48.552;9.380;2022-11-15T02:07:45;10.59;74.09
62464;SHT31;48512;48.552;9.380;2022-11-15T02:10:16;10.53;74.27
62464;SHT31;48512;48.552;9.380;2022-11-15T02:12:42;10.42;74.72
62464;SHT31;48512;48.552;9.380;2022-11-15T02:15:07;10.36;74.73
62464;SHT31;48512;48.552;9.380;2022-11-15T02:20:23;10.42;74.63
62464;SHT31;48512;48.552;9.380;2022-11-15T02:25:39;10.33;74.32
62464;SHT31;48512;48.552;9.380;2022-11-15T02:40:53;9.66;76.41
62464;SHT31;48512;48.552;9.380;2022-11-15T02:43:25;9.54;76.76
62464;SHT31;48512;48.552;9.380;2022-11-15T02:48:38;9.40;77.34
62464;SHT31;48512;48.552;9.380;2022-11-15T02:51:04;9.30;78.01
62464;SHT31;48512;48.552;9.380;2022-11-15T02:53:29;9.28;77.98
62464;SHT31;48512;48.552;9.380;2022-11-15T02:55:54;9.29;77.91
62464;SHT31;48512;48.552;9.380;2022-11-15T03:03:34;9.32;77.82
62464;SHT31;48512;48.552;9.380;2022-11-15T03:08:54;9.30;77.95
62464;SHT31;48512;48.552;9.380;2022-11-15T03:11:22;9.46;77.49
62464;SHT31;48512;48.552;9.380;2022-11-15T03:18:58;9.60;75.81
62464;SHT31;48512;48.552;9.380;2022-11-15T03:21:25;9.70;75.49
62464;SHT31;48512;48.552;9.380;2022-11-15T03:23:53;9.78;74.77
62464;SHT31;48512;48.552;9.380;2022-11-15T03:26:19;9.87;74.20
62464;SHT31;48512;48.552;9.380;2022-11-15T03:31:11;10.14;72.13
62464;SHT31;48512;48.552;9.380;2022-11-15T03:33:57;10.19;71.95
62464;SHT31;48512;48.552;9.380;2022-11-15T03:36:23;10.38;70.50
62464;SHT31;48512;48.552;9.380;2022-11-15T03:38:50;10.60;70.42
62464;SHT31;48512;48.552;9.380;2022-11-15T03:41:22;10.59;70.58
62464;SHT31;48512;48.552;9.380;2022-11-15T03:46:20;10.64;70.37
62464;SHT31;48512;48.552;9.380;2022-11-15T03:48:52;10.53;70.70
62464;SHT31;48512;48.552;9.380;2022-11-15T03:51:19;10.57;70.55
62464;SHT31;48512;48.552;9.380;2022-11-15T03:53:45;10.63;70.15
62464;SHT31;48512;48.552;9.380;2022-11-15T03:56:10;10.63;70.35
62464;SHT31;48512;48.552;9.380;2022-11-15T03:58:35;10.55;70.58
62464;SHT31;48512;48.552;9.380;2022-11-15T04:01:01;10.50;70.69
62464;SHT31;48512;48.552;9.380;2022-11-15T04:03:26;10.52;70.77
62464;SHT31;48512;48.552;9.380;2022-11-15T04:05:51;10.43;71.24
62464;SHT31;48512;48.552;9.380;2022-11-15T04:08:16;10.43;70.69
62464;SHT31;48512;48.552;9.380;2022-11-15T04:10:42;10.43;70.84
62464;SHT31;48512;48.552;9.380;2022-11-15T04:13:07;10.36;71.27
62464;SHT31;48512;48.552;9.380;2022-11-15T04:15:32;10.35;71.67
62464;SHT31;48512;48.552;9.380;2022-11-15T04:17:57;10.24;72.06
62464;SHT31;48512;48.552;9.380;2022-11-15T04:20:30;10.21;72.31
62464;SHT31;48512;48.552;9.380;2022-11-15T04:23:15;10.08;73.01
62464;SHT31;48512;48.552;9.380;2022-11-15T04:26:09;10.08;73.01
62464;SHT31;48512;48.552;9.380;2022-11-15T04:28:35;10.09;72.89
62464;SHT31;48512;48.552;9.380;2022-11-15T04:31:21;10.06;73.23
62464;SHT31;48512;48.552;9.380;2022-11-15T04:33:46;9.99;73.86
62464;SHT31;48512;48.552;9.380;2022-11-15T04:36:11;9.84;74.42
62464;SHT31;48512;48.552;9.380;2022-11-15T04:38:55;9.70;74.79
62464;SHT31;48512;48.552;9.380;2022-11-15T04:41:20;9.60;75.17
62464;SHT31;48512;48.552;9.380;2022-11-15T04:43:45;9.63;75.41
62464;SHT31;48512;48.552;9.380;2022-11-15T04:46:11;9.49;76.04
62464;SHT31;48512;48.552;9.380;2022-11-15T04:48:36;9.43;76.16
62464;SHT31;48512;48.552;9.380;2022-11-15T04:51:01;9.29;76.83
62464;SHT31;48512;48.552;9.380;2022-11-15T04:53:26;9.28;76.94
62464;SHT31;48512;48.552;9.380;2022-11-15T04:55:52;9.26;77.11
62464;SHT31;48512;48.552;9.380;2022-11-15T04:58:17;9.23;77.07
62464;SHT31;48512;48.552;9.380;2022-11-15T05:00:42;9.26;77.00
62464;SHT31;48512;48.552;9.380;2022-11-15T05:03:08;9.25;77.26
62464;SHT31;48512;48.552;9.380;2022-11-15T05:06:03;9.20;77.58
62464;SHT31;48512;48.552;9.380;2022-11-15T05:08:28;9.18;77.75
62464;SHT31;48512;48.552;9.380;2022-11-15T05:10:54;9.18;77.85
62464;SHT31;48512;48.552;9.380;2022-11-15T05:13:19;9.15;78.24
62464;SHT31;48512;48.552;9.380;2022-11-15T05:15:44;9.19;78.03
62464;SHT31;48512;48.552;9.380;2022-11-15T05:18:10;9.08;77.87
62464;SHT31;48512;48.552;9.380;2022-11-15T05:20:35;9.04;77.98
62464;SHT31;48512;48.552;9.380;2022-11-15T05:23:00;9.01;77.86
62464;SHT31;48512;48.552;9.380;2022-11-15T05:25:25;8.97;77.93
62464;SHT31;48512;48.552;9.380;2022-11-15T05:27:51;8.97;77.92
62464;SHT31;48512;48.552;9.380;2022-11-15T05:30:16;8.89;78.05
62464;SHT31;48512;48.552;9.380;2022-11-15T05:32:42;8.85;78.34
62464;SHT31;48512;48.552;9.380;2022-11-15T05:35:07;8.85;78.55
62464;SHT31;48512;48.552;9.380;2022-11-15T05:37:34;8.80;78.91
62464;SHT31;48512;48.552;9.380;2022-11-15T05:40:00;8.77;79.16
62464;SHT31;48512;48.552;9.380;2022-11-15T05:42:25;8.68;79.51
62464;SHT31;48512;48.552;9.380;2022-11-15T05:44:51;8.68;79.68
62464;SHT31;48512;48.552;9.380;2022-11-15T05:47:17;8.67;79.80
62464;SHT31;48512;48.552;9.380;2022-11-15T05:49:44;8.71;79.59
62464;SHT31;48512;48.552;9.380;2022-11-15T05:52:10;8.78;79.52
62464;SHT31;48512;48.552;9.380;2022-11-15T05:54:36;8.80;79.70
62464;SHT31;48512;48.552;9.380;2022-11-15T05:57:03;8.80;79.69
62464;SHT31;48512;48.552;9.380;2022-11-15T05:59:29;8.89;79.13
62464;SHT31;48512;48.552;9.380;2022-11-15T06:01:55;8.92;78.73
62464;SHT31;48512;48.552;9.380;2022-11-15T06:04:20;8.98;78.70
62464;SHT31;48512;48.552;9.380;2022-11-15T06:06:46;9.08;77.00
62464;SHT31;48512;48.552;9.380;2022-11-15T06:09:11;9.16;76.79
62464;SHT31;48512;48.552;9.380;2022-11-15T06:11:36;9.20;76.90
62464;SHT31;48512;48.552;9.380;2022-11-15T06:14:01;9.22;77.23
62464;SHT31;48512;48.552;9.380;2022-11-15T06:16:27;9.40;81.62
62464;SHT31;48512;48.552;9.380;2022-11-15T06:18:52;9.95;83.88
62464;SHT31;48512;48.552;9.380;2022-11-15T06:21:17;9.88;76.17
62464;SHT31;48512;48.552;9.380;2022-11-15T06:23:42;9.90;76.98
62464;SHT31;48512;48.552;9.380;2022-11-15T06:26:08;9.76;75.37
62464;SHT31;48512;48.552;9.380;2022-11-15T06:28:33;9.69;75.48
62464;SHT31;48512;48.552;9.380;2022-11-15T06:31:05;9.58;75.60
62464;SHT31;48512;48.552;9.380;2022-11-15T06:33:31;9.58;74.87
62464;SHT31;48512;48.552;9.380;2022-11-15T06:35:59;9.61;75.31
62464;SHT31;48512;48.552;9.380;2022-11-15T06:38:25;9.57;74.73
62464;SHT31;48512;48.552;9.380;2022-11-15T06:40:51;9.54;74.53
62464;SHT31;48512;48.552;9.380;2022-11-15T06:43:16;9.61;73.60
62464;SHT31;48512;48.552;9.380;2022-11-15T06:45:41;9.67;73.18
62464;SHT31;48512;48.552;9.380;2022-11-15T06:48:07;9.77;72.60
62464;SHT31;48512;48.552;9.380;2022-11-15T06:50:32;9.97;71.49
62464;SHT31;48512;48.552;9.380;2022-11-15T06:53:00;9.95;72.03
62464;SHT31;48512;48.552;9.380;2022-11-15T06:55:25;10.38;83.99
62464;SHT31;48512;48.552;9.380;2022-11-15T06:57:51;11.24;85.67
62464;SHT31;48512;48.552;9.380;2022-11-15T07:00:17;11.19;71.20
62464;SHT31;48512;48.552;9.380;2022-11-15T07:02:43;10.90;69.64
62464;SHT31;48512;48.552;9.380;2022-11-15T07:05:08;10.60;70.24
62464;SHT31;48512;48.552;9.380;2022-11-15T07:07:34;10.46;70.50
62464;SHT31;48512;48.552;9.380;2022-11-15T07:09:59;10.35;70.75
62464;SHT31;48512;48.552;9.380;2022-11-15T07:12:24;10.31;71.29
62464;SHT31;48512;48.552;9.380;2022-11-15T07:14:49;10.21;71.69
62464;SHT31;48512;48.552;9.380;2022-11-15T07:17:15;10.14;72.05
62464;SHT31;48512;48.552;9.380;2022-11-15T07:19:40;10.26;72.31
62464;SHT31;48512;48.552;9.380;2022-11-15T07:22:05;10.21;72.27
62464;SHT31;48512;48.552;9.380;2022-11-15T07:24:30;10.26;71.86
62464;SHT31;48512;48.552;9.380;2022-11-15T07:26:56;10.38;71.20
62464;SHT31;48512;48.552;9.380;2022-11-15T07:29:21;10.42;71.08
62464;SHT31;48512;48.552;9.380;2022-11-15T07:31:46;10.55;70.87
62464;SHT31;48512;48.552;9.380;2022-11-15T07:34:11;10.59;70.81
62464;SHT31;48512;48.552;9.380;2022-11-15T07:36:37;10.56;70.87
62464;SHT31;48512;48.552;9.380;2022-11-15T07:39:02;10.59;71.23
62464;SHT31;48512;48.552;9.380;2022-11-15T07:41:28;10.57;71.26
62464;SHT31;48512;48.552;9.380;2022-11-15T07:43:54;10.63;71.23
62464;SHT31;48512;48.552;9.380;2022-11-15T07:46:19;10.74;70.44
62464;SHT31;48512;48.552;9.380;2022-11-15T07:48:44;10.80;70.09
62464;SHT31;48512;48.552;9.380;2022-11-15T07:51:13;10.90;69.70
62464;SHT31;48512;48.552;9.380;2022-11-15T07:53:39;11.00;69.56
62464;SHT31;48512;48.552;9.380;2022-11-15T07:56:07;11.10;69.26
62464;SHT31;48512;48.552;9.380;2022-11-15T07:58:33;11.21;69.03
62464;SHT31;48512;48.552;9.380;2022-11-15T08:01:01;11.55;69.10
62464;SHT31;48512;48.552;9.380;2022-11-15T08:03:27;12.11;67.28
62464;SHT31;48512;48.552;9.380;2022-11-15T08:05:52;12.48;66.39
62464;SHT31;48512;48.552;9.380;2022-11-15T08:08:18;12.82;64.92
62464;SHT31;48512;48.552;9.380;2022-11-15T08:10:43;13.03;64.12
62464;SHT31;48512;48.552;9.380;2022-11-15T08:13:10;13.31;63.70
62464;SHT31;48512;48.552;9.380;2022-11-15T08:15:36;13.17;63.58
62464;SHT31;48512;48.552;9.380;2022-11-15T08:18:03;12.75;64.52
62464;SHT31;48512;48.552;9.380;2022-11-15T08:20:29;12.73;64.67
62464;SHT31;48512;48.552;9.380;2022-11-15T08:22:55;12.44;65.83
62464;SHT31;48512;48.552;9.380;2022-11-15T08:25:20;12.34;66.27
62464;SHT31;48512;48.552;9.380;2022-11-15T08:27:45;12.32;66.08
62464;SHT31;48512;48.552;9.380;2022-11-15T08:30:11;12.32;66.58
62464;SHT31;48512;48.552;9.380;2022-11-15T08:32:36;12.34;66.34
62464;SHT31;48512;48.552;9.380;2022-11-15T08:35:02;12.31;66.81
62464;SHT31;48512;48.552;9.380;2022-11-15T08:37:27;12.42;66.41
62464;SHT31;48512;48.552;9.380;2022-11-15T08:39:53;12.40;66.50
62464;SHT31;48512;48.552;9.380;2022-11-15T08:42:18;12.49;66.55
62464;SHT31;48512;48.552;9.380;2022-11-15T08:44:43;12.48;66.64
62464;SHT31;48512;48.552;9.380;2022-11-15T08:47:10;12.52;66.39
62464;SHT31;48512;48.552;9.380;2022-11-15T08:49:36;12.52;66.56
62464;SHT31;48512;48.552;9.380;2022-11-15T08:52:01;12.62;66.41
62464;SHT31;48512;48.552;9.380;2022-11-15T08:54:26;12.63;66.10
62464;SHT31;48512;48.552;9.380;2022-11-15T08:56:51;12.65;66.12
62464;SHT31;48512;48.552;9.380;2022-11-15T08:59:17;13.11;64.86
62464;SHT31;48512;48.552;9.380;2022-11-15T09:01:42;13.44;64.93
62464;SHT31;48512;48.552;9.380;2022-11-15T09:04:07;13.43;65.19
62464;SHT31;48512;48.552;9.380;2022-11-15T09:06:33;13.41;64.44
62464;SHT31;48512;48.552;9.380;2022-11-15T09:08:58;13.36;64.68
62464;SHT31;48512;48.552;9.380;2022-11-15T09:11:25;13.31;65.07
62464;SHT31;48512;48.552;9.380;2022-11-15T09:13:51;13.36;65.16
62464;SHT31;48512;48.552;9.380;2022-11-15T09:16:16;13.43;64.82
62464;SHT31;48512;48.552;9.380;2022-11-15T09:18:42;13.40;64.97
62464;SHT31;48512;48.552;9.380;2022-11-15T09:21:07;13.58;64.60
62464;SHT31;48512;48.552;9.380;2022-11-15T09:23:33;13.33;66.46
62464;SHT31;48512;48.552;9.380;2022-11-15T09:25:59;13.31;67.00
62464;SHT31;48512;48.552;9.380;2022-11-15T09:28:25;13.06;67.80
62464;SHT31;48512;48.552;9.380;2022-11-15T09:30:51;13.14;68.12
62464;SHT31;48512;48.552;9.380;2022-11-15T09:33:16;13.04;68.39
62464;SHT31;48512;48.552;9.380;2022-11-15T09:35:42;12.99;68.73
62464;SHT31;48512;48.552;9.380;2022-11-15T09:38:07;13.04;68.97
62464;SHT31;48512;48.552;9.380;2022-11-15T09:40:32;13.07;69.44
62464;SHT31;48512;48.552;9.380;2022-11-15T09:45:32;13.30;67.23
62464;SHT31;48512;48.552;9.380;2022-11-15T09:52:58;14.41;65.85
62464;SHT31;48512;48.552;9.380;2022-11-15T09:55:27;14.38;66.08
62464;SHT31;48512;48.552;9.380;2022-11-15T09:58:00;14.44;66.20
62464;SHT31;48512;48.552;9.380;2022-11-15T10:05:20;14.33;67.15
62464;SHT31;48512;48.552;9.380;2022-11-15T10:12:36;14.91;65.45
62464;SHT31;48512;48.552;9.380;2022-11-15T10:15:05;15.75;63.52
62464;SHT31;48512;48.552;9.380;2022-11-15T10:22:29;16.19;61.85
62464;SHT31;48512;48.552;9.380;2022-11-15T10:27:26;16.13;61.99
62464;SHT31;48512;48.552;9.380;2022-11-15T10:29:51;16.16;61.63
62464;SHT31;48512;48.552;9.380;2022-11-15T10:32:18;16.28;61.60
62464;SHT31;48512;48.552;9.380;2022-11-15T10:34:43;16.30;62.03
62464;SHT31;48512;48.552;9.380;2022-11-15T10:37:09;16.01;62.87
62464;SHT31;48512;48.552;9.380;2022-11-15T10:39:34;15.94;63.09
62464;SHT31;48512;48.552;9.380;2022-11-15T10:42:27;15.87;63.95
62464;SHT31;48512;48.552;9.380;2022-11-15T10:44:48;15.74;64.11
62464;SHT31;48512;48.552;9.380;2022-11-15T10:49:52;15.53;64.97
62464;SHT31;48512;48.552;9.380;2022-11-15T10:52:18;15.49;65.42
62464;SHT31;48512;48.552;9.380;2022-11-15T10:54:46;15.46;65.82
62464;SHT31;48512;48.552;9.380;2022-11-15T11:00:27;15.57;65.61
62464;SHT31;48512;48.552;9.380;2022-11-15T11:02:37;15.33;66.02
62464;SHT31;48512;48.552;9.380;2022-11-15T11:05:04;15.32;66.20
62464;SHT31;48512;48.552;9.380;2022-11-15T11:07:31;15.43;65.47
62464;SHT31;48512;48.552;9.380;2022-11-15T11:12:51;15.37;66.29
62464;SHT31;48512;48.552;9.380;2022-11-15T11:15:16;15.40;66.09
62464;SHT31;48512;48.552;9.380;2022-11-15T11:37:04;14.79;67.26
62464;SHT31;48512;48.552;9.380;2022-11-15T11:39:08;14.93;67.28
62464;SHT31;48512;48.552;9.380;2022-11-15T11:41:43;15.09;67.39
62464;SHT31;48512;48.552;9.380;2022-11-15T11:44:22;15.18;66.38
62464;SHT31;48512;48.552;9.380;2022-11-15T11:49:36;15.18;66.62
62464;SHT31;48512;48.552;9.380;2022-11-15T11:55:03;15.36;67.58
62464;SHT31;48512;48.552;9.380;2022-11-15T12:00:22;15.27;66.89
62464;SHT31;48512;48.552;9.380;2022-11-15T12:02:55;15.26;66.91
62464;SHT31;48512;48.552;9.380;2022-11-15T12:05:27;15.40;68.44
62464;SHT31;48512;48.552;9.380;2022-11-15T12:07:54;15.46;68.38
62464;SHT31;48512;48.552;9.380;2022-11-15T12:10:24;15.32;67.36
62464;SHT31;48512;48.552;9.380;2022-11-15T12:15:23;15.27;67.86
62464;SHT31;48512;48.552;9.380;2022-11-15T12:17:51;15.10;68.56
62464;SHT31;48512;48.552;9.380;2022-11-15T12:20:18;15.05;69.54
62464;SHT31;48512;48.552;9.380;2022-11-15T12:22:46;15.18;69.54
62464;SHT31;48512;48.552;9.380;2022-11-15T12:27:39;14.95;69.20
62464;SHT31;48512;48.552;9.380;2022-11-15T12:30:18;14.95;68.84
62464;SHT31;48512;48.552;9.380;2022-11-15T12:35:40;14.99;68.47
62464;SHT31;48512;48.552;9.380;2022-11-15T12:38:08;15.03;68.24
62464;SHT31;48512;48.552;9.380;2022-11-15T12:40:35;15.06;68.12
62464;SHT31;48512;48.552;9.380;2022-11-15T13:01:06;15.37;67.33
62464;SHT31;48512;48.552;9.380;2022-11-15T13:03:31;15.40;69.04
62464;SHT31;48512;48.552;9.380;2022-11-15T13:05:57;16.00;73.16
62464;SHT31;48512;48.552;9.380;2022-11-15T13:08:43;16.39;71.92
62464;SHT31;48512;48.552;9.380;2022-11-15T13:13:53;16.91;68.15
62464;SHT31;48512;48.552;9.380;2022-11-15T13:16:20;17.04;65.73
62464;SHT31;48512;48.552;9.380;2022-11-15T13:18:52;16.97;66.54
62464;SHT31;48512;48.552;9.380;2022-11-15T13:21:22;17.00;66.42
62464;SHT31;48512;48.552;9.380;2022-11-15T13:24:11;17.01;66.31
62464;SHT31;48512;48.552;9.380;2022-11-15T13:26:37;17.08;66.13
62464;SHT31;48512;48.552;9.380;2022-11-15T13:29:04;17.11;66.02
62464;SHT31;48512;48.552;9.380;2022-11-15T13:31:36;17.21;65.59
62464;SHT31;48512;48.552;9.380;2022-11-15T13:36:46;17.24;65.32
62464;SHT31;48512;48.552;9.380;2022-11-15T13:39:13;17.32;64.84
62464;SHT31;48512;48.552;9.380;2022-11-15T13:41:49;17.29;65.00
62464;SHT31;48512;48.552;9.380;2022-11-15T13:44:19;17.34;64.91
62464;SHT31;48512;48.552;9.380;2022-11-15T13:46:44;17.22;65.02
62464;SHT31;48512;48.552;9.380;2022-11-15T13:49:10;16.81;64.62
62464;SHT31;48512;48.552;9.380;2022-11-15T13:56:34;16.13;66.67
62464;SHT31;48512;48.552;9.380;2022-11-15T13:59:07;15.94;67.37
62464;SHT31;48512;48.552;9.380;2022-11-15T14:01:32;15.91;67.84
62464;SHT31;48512;48.552;9.380;2022-11-15T14:03:58;15.84;68.38
62464;SHT31;48512;48.552;9.380;2022-11-15T14:06:25;15.78;68.69
62464;SHT31;48512;48.552;9.380;2022-11-15T14:11:35;15.63;69.34
62464;SHT31;48512;48.552;9.380;2022-11-15T14:19:01;15.49;69.86
62464;SHT31;48512;48.552;9.380;2022-11-15T14:21:26;15.44;70.25
62464;SHT31;48512;48.552;9.380;2022-11-15T14:23:51;15.37;70.35
62464;SHT31;48512;48.552;9.380;2022-11-15T14:28:51;15.29;70.83
62464;SHT31;48512;48.552;9.380;2022-11-15T14:31:20;15.23;70.97
62464;SHT31;48512;48.552;9.380;2022-11-15T14:33:46;15.18;71.00
62464;SHT31;48512;48.552;9.380;2022-11-15T14:36:12;15.15;71.27
62464;SHT31;48512;48.552;9.380;2022-11-15T14:38:37;15.16;71.55
62464;SHT31;48512;48.552;9.380;2022-11-15T14:41:03;15.10;71.87
62464;SHT31;48512;48.552;9.380;2022-11-15T14:43:28;15.05;72.18
62464;SHT31;48512;48.552;9.380;2022-11-15T14:45:53;14.98;72.75
62464;SHT31;48512;48.552;9.380;2022-11-15T14:48:19;14.95;73.20
62464;SHT31;48512;48.552;9.380;2022-11-15T14:50:44;14.88;73.95
62464;SHT31;48512;48.552;9.380;2022-11-15T14:53:11;14.89;73.81
62464;SHT31;48512;48.552;9.380;2022-11-15T14:55:37;14.79;73.12
62464;SHT31;48512;48.552;9.380;2022-11-15T14:58:03;14.72;73.29
62464;SHT31;48512;48.552;9.380;2022-11-15T15:00:31;14.81;73.73
62464;SHT31;48512;48.552;9.380;2022-11-15T15:02:57;14.77;73.74
62464;SHT31;48512;48.552;9.380;2022-11-15T15:05:23;14.74;73.85
62464;SHT31;48512;48.552;9.380;2022-11-15T15:07:49;14.68;74.24
62464;SHT31;48512;48.552;9.380;2022-11-15T15:10:15;14.60;74.47
62464;SHT31;48512;48.552;9.380;2022-11-15T15:12:41;14.56;74.60
62464;SHT31;48512;48.552;9.380;2022-11-15T15:15:10;14.50;75.10
62464;SHT31;48512;48.552;9.380;2022-11-15T15:17:37;14.44;75.51
62464;SHT31;48512;48.552;9.380;2022-11-15T15:20:02;14.41;75.52
62464;SHT31;48512;48.552;9.380;2022-11-15T15:22:27;14.38;75.53
62464;SHT31;48512;48.552;9.380;2022-11-15T15:24:54;14.34;75.40
62464;SHT31;48512;48.552;9.380;2022-11-15T15:27:19;14.30;75.27
62464;SHT31;48512;48.552;9.380;2022-11-15T15:29:44;14.38;76.18
62464;SHT31;48512;48.552;9.380;2022-11-15T15:32:10;14.88;77.24
62464;SHT31;48512;48.552;9.380;2022-11-15T15:34:35;14.87;75.97
62464;SHT31;48512;48.552;9.380;2022-11-15T15:39:45;14.47;72.40
62464;SHT31;48512;48.552;9.380;2022-11-15T15:42:10;14.40;71.79
62464;SHT31;48512;48.552;9.380;2022-11-15T15:44:35;14.26;68.73
62464;SHT31;48512;48.552;9.380;2022-11-15T15:47:00;14.26;69.26
62464;SHT31;48512;48.552;9.380;2022-11-15T15:49:26;14.17;70.14
62464;SHT31;48512;48.552;9.380;2022-11-15T15:51:51;14.14;70.63
62464;SHT31;48512;48.552;9.380;2022-11-15T15:54:16;14.06;69.71
62464;SHT31;48512;48.552;9.380;2022-11-15T15:56:42;14.05;69.17
62464;SHT31;48512;48.552;9.380;2022-11-15T15:59:07;14.05;70.28
62464;SHT31;48512;48.552;9.380;2022-11-15T16:01:32;13.93;70.33
62464;SHT31;48512;48.552;9.380;2022-11-15T16:03:57;13.87;70.88
62464;SHT31;48512;48.552;9.380;2022-11-15T16:06:26;13.90;72.24
62464;SHT31;48512;48.552;9.380;2022-11-15T16:08:57;13.74;73.19
62464;SHT31;48512;48.552;9.380;2022-11-15T16:11:22;13.58;74.80
62464;SHT31;48512;48.552;9.380;2022-11-15T16:13:48;13.53;76.40
62464;SHT31;48512;48.552;9.380;2022-11-15T16:16:13;13.44;77.12
62464;SHT31;48512;48.552;9.380;2022-11-15T16:18:38;13.40;77.72
62464;SHT31;48512;48.552;9.380;2022-11-15T16:21:04;13.27;78.41
62464;SHT31;48512;48.552;9.380;2022-11-15T16:23:29;13.17;79.53
62464;SHT31;48512;48.552;9.380;2022-11-15T16:25:55;13.14;79.39
62464;SHT31;48512;48.552;9.380;2022-11-15T16:30:46;12.92;80.19
62464;SHT31;48512;48.552;9.380;2022-11-15T16:33:11;12.92;79.83
62464;SHT31;48512;48.552;9.380;2022-11-15T16:35:36;12.93;79.55
62464;SHT31;48512;48.552;9.380;2022-11-15T16:38:01;12.99;78.15
62464;SHT31;48512;48.552;9.380;2022-11-15T16:40:28;13.11;77.52
62464;SHT31;48512;48.552;9.380;2022-11-15T16:42:55;13.26;78.48
62464;SHT31;48512;48.552;9.380;2022-11-15T16:45:20;13.66;78.47
62464;SHT31;48512;48.552;9.380;2022-11-15T16:47:46;13.50;76.90
62464;SHT31;48512;48.552;9.380;2022-11-15T16:50:17;13.57;77.03
62464;SHT31;48512;48.552;9.380;2022-11-15T16:52:43;13.54;77.90
62464;SHT31;48512;48.552;9.380;2022-11-15T16:55:09;13.38;77.00
62464;SHT31;48512;48.552;9.380;2022-11-15T16:57:34;13.30;77.51
62464;SHT31;48512;48.552;9.380;2022-11-15T16:59:59;13.21;77.91
62464;SHT31;48512;48.552;9.380;2022-11-15T17:02:25;13.10;78.27
62464;SHT31;48512;48.552;9.380;2022-11-15T17:04:50;12.96;78.67
62464;SHT31;48512;48.552;9.380;2022-11-15T17:07:15;12.95;78.54
62464;SHT31;48512;48.552;9.380;2022-11-15T17:09:40;12.72;78.85
62464;SHT31;48512;48.552;9.380;2022-11-15T17:12:06;12.70;78.60
62464;SHT31;48512;48.552;9.380;2022-11-15T17:14:32;12.68;79.08
62464;SHT31;48512;48.552;9.380;2022-11-15T17:16:57;12.72;78.52
62464;SHT31;48512;48.552;9.380;2022-11-15T17:19:23;12.69;78.37
62464;SHT31;48512;48.552;9.380;2022-11-15T17:21:48;12.61;78.44
62464;SHT31;48512;48.552;9.380;2022-11-15T17:24:13;12.66;78.26
62464;SHT31;48512;48.552;9.380;2022-11-15T17:26:39;12.55;78.45
62464;SHT31;48512;48.552;9.380;2022-11-15T17:29:04;12.44;78.85
62464;SHT31;48512;48.552;9.380;2022-11-15T17:31:32;12.51;78.53
62464;SHT31;48512;48.552;9.380;2022-11-15T17:33:59;12.52;78.28
62464;SHT31;48512;48.552;9.380;2022-11-15T17:36:27;12.44;78.46
62464;SHT31;48512;48.552;9.380;2022-11-15T17:38:53;12.40;78.17
62464;SHT31;48512;48.552;9.380;2022-11-15T17:41:18;12.44;78.05
62464;SHT31;48512;48.552;9.380;2022-11-15T17:43:45;12.34;78.35
62464;SHT31;48512;48.552;9.380;2022-11-15T17:46:12;12.38;78.21
62464;SHT31;48512;48.552;9.380;2022-11-15T17:48:37;12.24;78.83
62464;SHT31;48512;48.552;9.380;2022-11-15T17:51:04;12.31;78.47
62464;SHT31;48512;48.552;9.380;2022-11-15T17:53:38;12.20;78.88
62464;SHT31;48512;48.552;9.380;2022-11-15T17:56:05;12.14;79.75
62464;SHT31;48512;48.552;9.380;2022-11-15T17:58:31;12.23;79.40
62464;SHT31;48512;48.552;9.380;2022-11-15T18:03:37;12.11;80.73